sensor_id;sensor_type;location;lat;lon;timestamp;P1;durP1;ratioP1;P2;durP2;ratioP2
13683;SDS011;6914;53.552;9.908;2024-02-28T00:02:21;51.60;;;33.87;;
13683;SDS011;6914;53.552;9.908;2024-02-28T00:04:48;54.00;;;34.17;;
13683;SDS011;6914;53.552;9.908;2024-02-28T00:07:16;52.23;;;32.73;;
13683;SDS011;6914;53.552;9.908;2024-02-28T00:09:43;50.10;;;31.83;;
13683;SDS011;6914;53.552;9.908;2024-02-28T00:12:11;60.67;;;35.70;;
13683;SDS011;6914;53.552;9.908;2024-02-28T00:14:40;57.37;;;35.13;;
13683;SDS011;6914;53.552;9.908;2024-02-28T00:17:07;53.60;;;32.80;;
13683;SDS011;6914;53.552;9.908;2024-02-28T00:19:34;52.27;;;33.20;;
13683;SDS011;6914;53.552;9.908;2024-02-28T00:22:02;54.07;;;33.57;;
13683;SDS011;6914;53.552;9.908;2024-02-28T00:24:30;61.83;;;34.47;;
13683;SDS011;6914;53.552;9.908;2024-02-28T00:26:57;58.30;;;36.17;;
13683;SDS011;6914;53.552;9.908;2024-02-28T00:29:24;61.63;;;35.77;;
13683;SDS011;6914;53.552;9.908;2024-02-28T00:31:52;61.20;;;36.43;;
13683;SDS011;6914;53.552;9.908;2024-02-28T00:34:19;56.10;;;33.30;;
13683;SDS011;6914;53.552;9.908;2024-02-28T00:36:46;58.90;;;35.07;;
13683;SDS011;6914;53.552;9.908;2024-02-28T00:39:13;57.20;;;33.43;;
13683;SDS011;6914;53.552;9.908;2024-02-28T00:41:42;56.93;;;36.50;;
13683;SDS011;6914;53.552;9.908;2024-02-28T00:44:09;52.20;;;32.83;;
13683;SDS011;6914;53.552;9.908;2024-02-28T00:46:38;59.23;;;35.80;;
13683;SDS011;6914;53.552;9.908;2024-02-28T00:49:06;52.57;;;33.07;;
13683;SDS011;6914;53.552;9.908;2024-02-28T00:51:33;52.10;;;33.00;;
13683;SDS011;6914;53.552;9.908;2024-02-28T00:54:01;52.90;;;32.93;;
13683;SDS011;6914;53.552;9.908;2024-02-28T00:56:28;56.43;;;34.00;;
13683;SDS011;6914;53.552;9.908;2024-02-28T00:58:57;52.77;;;32.30;;
13683;SDS011;6914;53.552;9.908;2024-02-28T01:01:24;54.43;;;34.13;;
13683;SDS011;6914;53.552;9.908;2024-02-28T01:03:51;56.73;;;35.10;;
13683;SDS011;6914;53.552;9.908;2024-02-28T01:06:18;50.70;;;31.73;;
13683;SDS011;6914;53.552;9.908;2024-02-28T01:08:45;54.67;;;33.50;;
13683;SDS011;6914;53.552;9.908;2024-02-28T01:11:12;53.07;;;33.87;;
13683;SDS011;6914;53.552;9.908;2024-02-28T01:13:39;55.67;;;31.27;;
13683;SDS011;6914;53.552;9.908;2024-02-28T01:16:08;49.03;;;31.00;;
13683;SDS011;6914;53.552;9.908;2024-02-28T01:18:35;51.57;;;30.47;;
13683;SDS011;6914;53.552;9.908;2024-02-28T01:21:03;52.33;;;32.27;;
13683;SDS011;6914;53.552;9.908;2024-02-28T01:23:30;51.10;;;32.30;;
13683;SDS011;6914;53.552;9.908;2024-02-28T01:25:57;50.10;;;30.20;;
13683;SDS011;6914;53.552;9.908;2024-02-28T01:28:24;48.30;;;30.50;;
13683;SDS011;6914;53.552;9.908;2024-02-28T01:30:51;53.33;;;32.03;;
13683;SDS011;6914;53.552;9.908;2024-02-28T01:33:20;54.50;;;30.10;;
13683;SDS011;6914;53.552;9.908;2024-02-28T01:35:47;51.00;;;29.77;;
13683;SDS011;6914;53.552;9.908;2024-02-28T01:38:14;47.00;;;29.43;;
13683;SDS011;6914;53.552;9.908;2024-02-28T01:40:44;48.30;;;28.60;;
13683;SDS011;6914;53.552;9.908;2024-02-28T01:43:11;50.70;;;29.50;;
13683;SDS011;6914;53.552;9.908;2024-02-28T01:45:39;50.93;;;31.37;;
13683;SDS011;6914;53.552;9.908;2024-02-28T01:48:06;46.07;;;29.00;;
13683;SDS011;6914;53.552;9.908;2024-02-28T01:50:35;49.90;;;30.07;;
13683;SDS011;6914;53.552;9.908;2024-02-28T01:53:03;53.40;;;30.80;;
13683;SDS011;6914;53.552;9.908;2024-02-28T01:55:31;48.53;;;28.40;;
13683;SDS011;6914;53.552;9.908;2024-02-28T01:57:59;52.17;;;29.13;;
13683;SDS011;6914;53.552;9.908;2024-02-28T02:00:26;49.83;;;28.97;;
13683;SDS011;6914;53.552;9.908;2024-02-28T02:02:54;50.90;;;30.53;;
13683;SDS011;6914;53.552;9.908;2024-02-28T02:05:21;57.97;;;29.87;;
13683;SDS011;6914;53.552;9.908;2024-02-28T02:07:50;49.63;;;29.40;;
13683;SDS011;6914;53.552;9.908;2024-02-28T02:10:17;60.73;;;29.47;;
13683;SDS011;6914;53.552;9.908;2024-02-28T02:12:44;48.87;;;28.53;;
13683;SDS011;6914;53.552;9.908;2024-02-28T02:15:11;47.50;;;27.97;;
13683;SDS011;6914;53.552;9.908;2024-02-28T02:17:38;49.03;;;29.93;;
13683;SDS011;6914;53.552;9.908;2024-02-28T02:20:06;48.23;;;28.10;;
13683;SDS011;6914;53.552;9.908;2024-02-28T02:22:35;51.20;;;29.93;;
13683;SDS011;6914;53.552;9.908;2024-02-28T02:25:04;42.77;;;25.57;;
13683;SDS011;6914;53.552;9.908;2024-02-28T02:27:31;44.70;;;25.53;;
13683;SDS011;6914;53.552;9.908;2024-02-28T02:29:58;46.53;;;27.20;;
13683;SDS011;6914;53.552;9.908;2024-02-28T02:32:25;45.07;;;25.40;;
13683;SDS011;6914;53.552;9.908;2024-02-28T02:34:53;45.70;;;26.50;;
13683;SDS011;6914;53.552;9.908;2024-02-28T02:37:20;48.07;;;27.70;;
13683;SDS011;6914;53.552;9.908;2024-02-28T02:39:50;50.60;;;26.80;;
13683;SDS011;6914;53.552;9.908;2024-02-28T02:42:18;42.93;;;22.07;;
13683;SDS011;6914;53.552;9.908;2024-02-28T02:44:45;49.90;;;25.67;;
13683;SDS011;6914;53.552;9.908;2024-02-28T02:47:12;44.60;;;24.93;;
13683;SDS011;6914;53.552;9.908;2024-02-28T02:49:39;47.13;;;25.47;;
13683;SDS011;6914;53.552;9.908;2024-02-28T02:52:06;44.90;;;26.50;;
13683;SDS011;6914;53.552;9.908;2024-02-28T02:54:34;42.03;;;23.67;;
13683;SDS011;6914;53.552;9.908;2024-02-28T02:57:02;45.30;;;24.77;;
13683;SDS011;6914;53.552;9.908;2024-02-28T02:59:30;45.93;;;22.83;;
13683;SDS011;6914;53.552;9.908;2024-02-28T03:01:57;44.10;;;25.60;;
13683;SDS011;6914;53.552;9.908;2024-02-28T03:04:24;49.30;;;24.73;;
13683;SDS011;6914;53.552;9.908;2024-02-28T03:06:51;41.03;;;24.97;;
13683;SDS011;6914;53.552;9.908;2024-02-28T03:09:18;39.97;;;23.00;;
13683;SDS011;6914;53.552;9.908;2024-02-28T03:11:45;41.13;;;23.27;;
13683;SDS011;6914;53.552;9.908;2024-02-28T03:14:13;40.43;;;24.70;;
13683;SDS011;6914;53.552;9.908;2024-02-28T03:16:41;40.33;;;22.40;;
13683;SDS011;6914;53.552;9.908;2024-02-28T03:19:09;39.90;;;23.67;;
13683;SDS011;6914;53.552;9.908;2024-02-28T03:21:37;38.20;;;23.43;;
13683;SDS011;6914;53.552;9.908;2024-02-28T03:24:04;42.50;;;22.50;;
13683;SDS011;6914;53.552;9.908;2024-02-28T03:26:31;44.27;;;23.43;;
13683;SDS011;6914;53.552;9.908;2024-02-28T03:28:58;41.03;;;23.03;;
13683;SDS011;6914;53.552;9.908;2024-02-28T03:31:27;45.10;;;25.10;;
13683;SDS011;6914;53.552;9.908;2024-02-28T03:33:54;41.10;;;23.93;;
13683;SDS011;6914;53.552;9.908;2024-02-28T03:36:21;45.50;;;24.63;;
13683;SDS011;6914;53.552;9.908;2024-02-28T03:41:24;47.27;;;26.17;;
13683;SDS011;6914;53.552;9.908;2024-02-28T03:43:51;47.37;;;27.27;;
13683;SDS011;6914;53.552;9.908;2024-02-28T03:46:19;47.73;;;25.87;;
13683;SDS011;6914;53.552;9.908;2024-02-28T03:48:48;44.60;;;24.90;;
13683;SDS011;6914;53.552;9.908;2024-02-28T03:51:15;43.67;;;25.93;;
13683;SDS011;6914;53.552;9.908;2024-02-28T03:53:45;40.07;;;24.60;;
13683;SDS011;6914;53.552;9.908;2024-02-28T03:56:12;45.43;;;25.93;;
13683;SDS011;6914;53.552;9.908;2024-02-28T03:58:43;41.67;;;25.67;;
13683;SDS011;6914;53.552;9.908;2024-02-28T04:01:10;39.67;;;24.77;;
13683;SDS011;6914;53.552;9.908;2024-02-28T04:03:38;41.70;;;23.83;;
13683;SDS011;6914;53.552;9.908;2024-02-28T04:06:09;41.27;;;23.80;;
13683;SDS011;6914;53.552;9.908;2024-02-28T04:08:37;42.90;;;22.87;;
13683;SDS011;6914;53.552;9.908;2024-02-28T04:11:04;50.73;;;25.20;;
13683;SDS011;6914;53.552;9.908;2024-02-28T04:13:31;42.50;;;24.37;;
13683;SDS011;6914;53.552;9.908;2024-02-28T04:15:58;46.70;;;22.70;;
13683;SDS011;6914;53.552;9.908;2024-02-28T04:18:25;44.67;;;24.70;;
13683;SDS011;6914;53.552;9.908;2024-02-28T04:20:52;39.73;;;24.37;;
13683;SDS011;6914;53.552;9.908;2024-02-28T04:23:21;46.60;;;25.07;;
13683;SDS011;6914;53.552;9.908;2024-02-28T04:25:48;42.70;;;23.73;;
13683;SDS011;6914;53.552;9.908;2024-02-28T04:28:15;46.53;;;26.77;;
13683;SDS011;6914;53.552;9.908;2024-02-28T04:30:43;49.17;;;25.07;;
13683;SDS011;6914;53.552;9.908;2024-02-28T04:33:10;45.90;;;25.73;;
13683;SDS011;6914;53.552;9.908;2024-02-28T04:35:37;40.67;;;25.30;;
13683;SDS011;6914;53.552;9.908;2024-02-28T04:38:04;44.93;;;24.43;;
13683;SDS011;6914;53.552;9.908;2024-02-28T04:40:32;47.70;;;24.93;;
13683;SDS011;6914;53.552;9.908;2024-02-28T04:43:00;46.53;;;25.73;;
13683;SDS011;6914;53.552;9.908;2024-02-28T04:45:28;41.90;;;24.67;;
13683;SDS011;6914;53.552;9.908;2024-02-28T04:47:55;46.03;;;24.17;;
13683;SDS011;6914;53.552;9.908;2024-02-28T04:50:22;45.80;;;25.30;;
13683;SDS011;6914;53.552;9.908;2024-02-28T04:52:51;44.27;;;23.90;;
13683;SDS011;6914;53.552;9.908;2024-02-28T04:55:18;45.83;;;24.83;;
13683;SDS011;6914;53.552;9.908;2024-02-28T04:57:46;44.00;;;25.47;;
13683;SDS011;6914;53.552;9.908;2024-02-28T05:00:13;40.10;;;23.57;;
13683;SDS011;6914;53.552;9.908;2024-02-28T05:02:40;47.23;;;26.20;;
13683;SDS011;6914;53.552;9.908;2024-02-28T05:05:08;48.57;;;26.70;;
13683;SDS011;6914;53.552;9.908;2024-02-28T05:07:35;51.30;;;26.33;;
13683;SDS011;6914;53.552;9.908;2024-02-28T05:10:02;59.13;;;28.63;;
13683;SDS011;6914;53.552;9.908;2024-02-28T05:12:30;58.93;;;26.30;;
13683;SDS011;6914;53.552;9.908;2024-02-28T05:14:59;47.63;;;26.83;;
13683;SDS011;6914;53.552;9.908;2024-02-28T05:17:26;49.87;;;29.47;;
13683;SDS011;6914;53.552;9.908;2024-02-28T05:19:53;47.57;;;26.83;;
13683;SDS011;6914;53.552;9.908;2024-02-28T05:22:22;58.63;;;29.57;;
13683;SDS011;6914;53.552;9.908;2024-02-28T05:24:49;54.50;;;27.73;;
13683;SDS011;6914;53.552;9.908;2024-02-28T05:27:16;52.97;;;29.30;;
13683;SDS011;6914;53.552;9.908;2024-02-28T05:29:43;50.60;;;28.13;;
13683;SDS011;6914;53.552;9.908;2024-02-28T05:32:12;56.90;;;29.13;;
13683;SDS011;6914;53.552;9.908;2024-02-28T05:34:39;56.40;;;27.87;;
13683;SDS011;6914;53.552;9.908;2024-02-28T05:37:06;51.13;;;28.17;;
13683;SDS011;6914;53.552;9.908;2024-02-28T05:39:34;47.27;;;27.17;;
13683;SDS011;6914;53.552;9.908;2024-02-28T05:42:01;45.10;;;26.60;;
13683;SDS011;6914;53.552;9.908;2024-02-28T05:44:28;51.33;;;30.40;;
13683;SDS011;6914;53.552;9.908;2024-02-28T05:46:55;50.13;;;26.80;;
13683;SDS011;6914;53.552;9.908;2024-02-28T05:49:24;49.90;;;28.50;;
13683;SDS011;6914;53.552;9.908;2024-02-28T05:51:51;54.13;;;28.63;;
13683;SDS011;6914;53.552;9.908;2024-02-28T05:54:19;48.67;;;28.60;;
13683;SDS011;6914;53.552;9.908;2024-02-28T05:56:46;48.90;;;27.53;;
13683;SDS011;6914;53.552;9.908;2024-02-28T05:59:13;49.37;;;27.93;;
13683;SDS011;6914;53.552;9.908;2024-02-28T06:01:40;52.03;;;29.80;;
13683;SDS011;6914;53.552;9.908;2024-02-28T06:04:08;50.47;;;28.57;;
13683;SDS011;6914;53.552;9.908;2024-02-28T06:06:36;49.07;;;28.30;;
13683;SDS011;6914;53.552;9.908;2024-02-28T06:09:03;51.90;;;30.30;;
13683;SDS011;6914;53.552;9.908;2024-02-28T06:11:31;56.27;;;29.20;;
13683;SDS011;6914;53.552;9.908;2024-02-28T06:13:58;52.43;;;29.97;;
13683;SDS011;6914;53.552;9.908;2024-02-28T06:16:26;55.37;;;31.17;;
13683;SDS011;6914;53.552;9.908;2024-02-28T06:18:53;44.93;;;26.53;;
13683;SDS011;6914;53.552;9.908;2024-02-28T06:21:21;43.37;;;25.93;;
13683;SDS011;6914;53.552;9.908;2024-02-28T06:23:50;45.40;;;26.03;;
13683;SDS011;6914;53.552;9.908;2024-02-28T06:26:19;49.93;;;28.60;;
13683;SDS011;6914;53.552;9.908;2024-02-28T06:28:47;51.10;;;28.73;;
13683;SDS011;6914;53.552;9.908;2024-02-28T06:31:16;40.20;;;23.97;;
13683;SDS011;6914;53.552;9.908;2024-02-28T06:33:43;43.87;;;26.40;;
13683;SDS011;6914;53.552;9.908;2024-02-28T06:36:10;51.63;;;27.30;;
13683;SDS011;6914;53.552;9.908;2024-02-28T06:38:37;40.30;;;25.10;;
13683;SDS011;6914;53.552;9.908;2024-02-28T06:41:06;38.57;;;24.13;;
13683;SDS011;6914;53.552;9.908;2024-02-28T06:43:34;39.47;;;24.80;;
13683;SDS011;6914;53.552;9.908;2024-02-28T06:46:01;33.77;;;20.73;;
13683;SDS011;6914;53.552;9.908;2024-02-28T06:48:29;33.67;;;21.40;;
13683;SDS011;6914;53.552;9.908;2024-02-28T06:50:58;31.67;;;20.53;;
13683;SDS011;6914;53.552;9.908;2024-02-28T06:53:25;34.23;;;21.63;;
13683;SDS011;6914;53.552;9.908;2024-02-28T06:55:52;31.50;;;20.03;;
13683;SDS011;6914;53.552;9.908;2024-02-28T06:58:21;34.10;;;20.73;;
13683;SDS011;6914;53.552;9.908;2024-02-28T07:00:49;32.67;;;20.40;;
13683;SDS011;6914;53.552;9.908;2024-02-28T07:03:17;32.77;;;20.27;;
13683;SDS011;6914;53.552;9.908;2024-02-28T07:05:44;31.67;;;20.83;;
13683;SDS011;6914;53.552;9.908;2024-02-28T07:08:11;32.87;;;20.30;;
13683;SDS011;6914;53.552;9.908;2024-02-28T07:10:39;35.13;;;21.20;;
13683;SDS011;6914;53.552;9.908;2024-02-28T07:13:08;37.60;;;22.80;;
13683;SDS011;6914;53.552;9.908;2024-02-28T07:15:37;36.40;;;21.27;;
13683;SDS011;6914;53.552;9.908;2024-02-28T07:18:13;39.03;;;23.33;;
13683;SDS011;6914;53.552;9.908;2024-02-28T07:20:40;41.37;;;22.90;;
13683;SDS011;6914;53.552;9.908;2024-02-28T07:23:07;33.00;;;21.70;;
13683;SDS011;6914;53.552;9.908;2024-02-28T07:25:34;36.73;;;22.23;;
13683;SDS011;6914;53.552;9.908;2024-02-28T07:28:01;40.80;;;23.80;;
13683;SDS011;6914;53.552;9.908;2024-02-28T07:30:28;40.97;;;24.63;;
13683;SDS011;6914;53.552;9.908;2024-02-28T07:32:57;41.70;;;24.20;;
13683;SDS011;6914;53.552;9.908;2024-02-28T07:35:24;41.07;;;24.23;;
13683;SDS011;6914;53.552;9.908;2024-02-28T07:37:53;34.43;;;22.90;;
13683;SDS011;6914;53.552;9.908;2024-02-28T07:40:20;42.27;;;24.93;;
13683;SDS011;6914;53.552;9.908;2024-02-28T07:42:48;52.00;;;26.10;;
13683;SDS011;6914;53.552;9.908;2024-02-28T07:45:19;39.47;;;23.87;;
13683;SDS011;6914;53.552;9.908;2024-02-28T07:47:47;41.83;;;24.70;;
13683;SDS011;6914;53.552;9.908;2024-02-28T07:50:16;41.87;;;25.87;;
13683;SDS011;6914;53.552;9.908;2024-02-28T07:52:44;36.67;;;23.23;;
13683;SDS011;6914;53.552;9.908;2024-02-28T07:55:11;41.17;;;25.20;;
13683;SDS011;6914;53.552;9.908;2024-02-28T07:57:39;40.00;;;22.13;;
13683;SDS011;6914;53.552;9.908;2024-02-28T08:00:07;37.90;;;23.03;;
13683;SDS011;6914;53.552;9.908;2024-02-28T08:02:34;43.10;;;25.70;;
13683;SDS011;6914;53.552;9.908;2024-02-28T08:05:02;42.43;;;25.00;;
13683;SDS011;6914;53.552;9.908;2024-02-28T08:07:33;42.70;;;25.50;;
13683;SDS011;6914;53.552;9.908;2024-02-28T08:10:00;41.67;;;26.30;;
13683;SDS011;6914;53.552;9.908;2024-02-28T08:12:36;44.73;;;26.90;;
13683;SDS011;6914;53.552;9.908;2024-02-28T08:15:03;44.80;;;27.73;;
13683;SDS011;6914;53.552;9.908;2024-02-28T08:17:30;47.97;;;27.97;;
13683;SDS011;6914;53.552;9.908;2024-02-28T08:19:58;47.20;;;27.00;;
13683;SDS011;6914;53.552;9.908;2024-02-28T08:22:25;45.10;;;27.27;;
13683;SDS011;6914;53.552;9.908;2024-02-28T08:24:54;50.40;;;28.53;;
13683;SDS011;6914;53.552;9.908;2024-02-28T08:27:21;48.53;;;29.20;;
13683;SDS011;6914;53.552;9.908;2024-02-28T08:29:49;49.60;;;30.20;;
13683;SDS011;6914;53.552;9.908;2024-02-28T08:32:17;52.23;;;30.70;;
13683;SDS011;6914;53.552;9.908;2024-02-28T08:34:44;48.90;;;29.57;;
13683;SDS011;6914;53.552;9.908;2024-02-28T08:37:11;47.23;;;30.77;;
13683;SDS011;6914;53.552;9.908;2024-02-28T08:39:38;57.73;;;31.17;;
13683;SDS011;6914;53.552;9.908;2024-02-28T08:42:07;49.87;;;30.20;;
13683;SDS011;6914;53.552;9.908;2024-02-28T08:44:34;52.47;;;30.83;;
13683;SDS011;6914;53.552;9.908;2024-02-28T08:47:02;55.23;;;33.10;;
13683;SDS011;6914;53.552;9.908;2024-02-28T08:49:29;50.17;;;30.57;;
13683;SDS011;6914;53.552;9.908;2024-02-28T08:51:56;54.00;;;31.23;;
13683;SDS011;6914;53.552;9.908;2024-02-28T08:54:24;55.40;;;30.80;;
13683;SDS011;6914;53.552;9.908;2024-02-28T08:56:51;50.20;;;31.37;;
13683;SDS011;6914;53.552;9.908;2024-02-28T08:59:19;53.67;;;32.90;;
13683;SDS011;6914;53.552;9.908;2024-02-28T09:01:47;49.20;;;29.80;;
13683;SDS011;6914;53.552;9.908;2024-02-28T09:04:13;45.50;;;28.33;;
13683;SDS011;6914;53.552;9.908;2024-02-28T09:06:40;47.13;;;30.03;;
13683;SDS011;6914;53.552;9.908;2024-02-28T09:09:08;46.70;;;27.87;;
13683;SDS011;6914;53.552;9.908;2024-02-28T09:11:35;49.83;;;31.00;;
13683;SDS011;6914;53.552;9.908;2024-02-28T09:14:02;48.90;;;30.50;;
13683;SDS011;6914;53.552;9.908;2024-02-28T09:16:31;46.80;;;30.30;;
13683;SDS011;6914;53.552;9.908;2024-02-28T09:18:58;57.80;;;30.10;;
13683;SDS011;6914;53.552;9.908;2024-02-28T09:21:25;45.50;;;28.80;;
13683;SDS011;6914;53.552;9.908;2024-02-28T09:23:52;47.17;;;29.30;;
13683;SDS011;6914;53.552;9.908;2024-02-28T09:26:19;46.30;;;29.67;;
13683;SDS011;6914;53.552;9.908;2024-02-28T09:28:46;46.27;;;28.80;;
13683;SDS011;6914;53.552;9.908;2024-02-28T09:31:14;53.20;;;29.47;;
13683;SDS011;6914;53.552;9.908;2024-02-28T09:33:42;48.60;;;30.23;;
13683;SDS011;6914;53.552;9.908;2024-02-28T09:36:11;55.83;;;32.17;;
13683;SDS011;6914;53.552;9.908;2024-02-28T09:38:38;46.43;;;28.20;;
13683;SDS011;6914;53.552;9.908;2024-02-28T09:41:06;46.87;;;28.20;;
13683;SDS011;6914;53.552;9.908;2024-02-28T09:43:36;67.93;;;28.40;;
13683;SDS011;6914;53.552;9.908;2024-02-28T09:46:07;45.80;;;27.33;;
13683;SDS011;6914;53.552;9.908;2024-02-28T09:48:36;43.17;;;28.07;;
13683;SDS011;6914;53.552;9.908;2024-02-28T09:51:06;42.20;;;27.47;;
13683;SDS011;6914;53.552;9.908;2024-02-28T09:53:33;38.73;;;26.70;;
13683;SDS011;6914;53.552;9.908;2024-02-28T09:56:00;44.77;;;28.90;;
13683;SDS011;6914;53.552;9.908;2024-02-28T09:58:27;50.60;;;30.00;;
13683;SDS011;6914;53.552;9.908;2024-02-28T10:00:55;43.00;;;27.50;;
13683;SDS011;6914;53.552;9.908;2024-02-28T10:03:25;39.30;;;25.60;;
13683;SDS011;6914;53.552;9.908;2024-02-28T10:05:54;40.10;;;26.17;;
13683;SDS011;6914;53.552;9.908;2024-02-28T10:08:23;40.40;;;25.30;;
13683;SDS011;6914;53.552;9.908;2024-02-28T10:10:58;39.70;;;26.20;;
13683;SDS011;6914;53.552;9.908;2024-02-28T10:13:26;36.80;;;26.57;;
13683;SDS011;6914;53.552;9.908;2024-02-28T10:15:53;37.60;;;24.87;;
13683;SDS011;6914;53.552;9.908;2024-02-28T10:18:25;36.77;;;25.27;;
13683;SDS011;6914;53.552;9.908;2024-02-28T10:20:53;35.77;;;25.00;;
13683;SDS011;6914;53.552;9.908;2024-02-28T10:23:20;40.97;;;24.70;;
13683;SDS011;6914;53.552;9.908;2024-02-28T10:25:50;38.53;;;26.60;;
13683;SDS011;6914;53.552;9.908;2024-02-28T10:28:21;38.67;;;27.03;;
13683;SDS011;6914;53.552;9.908;2024-02-28T10:30:50;35.73;;;24.60;;
13683;SDS011;6914;53.552;9.908;2024-02-28T10:33:20;37.43;;;25.03;;
13683;SDS011;6914;53.552;9.908;2024-02-28T10:35:54;39.63;;;24.17;;
13683;SDS011;6914;53.552;9.908;2024-02-28T10:38:21;42.83;;;27.27;;
13683;SDS011;6914;53.552;9.908;2024-02-28T10:40:55;35.47;;;26.00;;
13683;SDS011;6914;53.552;9.908;2024-02-28T10:43:23;36.37;;;24.60;;
13683;SDS011;6914;53.552;9.908;2024-02-28T10:45:51;34.80;;;24.93;;
13683;SDS011;6914;53.552;9.908;2024-02-28T10:48:19;40.87;;;26.77;;
13683;SDS011;6914;53.552;9.908;2024-02-28T10:50:46;39.13;;;25.20;;
13683;SDS011;6914;53.552;9.908;2024-02-28T10:53:20;35.93;;;25.90;;
13683;SDS011;6914;53.552;9.908;2024-02-28T10:55:49;37.20;;;23.67;;
13683;SDS011;6914;53.552;9.908;2024-02-28T10:58:19;33.30;;;21.50;;
13683;SDS011;6914;53.552;9.908;2024-02-28T11:00:49;35.17;;;21.83;;
13683;SDS011;6914;53.552;9.908;2024-02-28T11:03:16;31.60;;;23.07;;
13683;SDS011;6914;53.552;9.908;2024-02-28T11:05:44;40.03;;;24.20;;
13683;SDS011;6914;53.552;9.908;2024-02-28T11:08:19;40.13;;;22.03;;
13683;SDS011;6914;53.552;9.908;2024-02-28T11:10:54;33.93;;;21.80;;
13683;SDS011;6914;53.552;9.908;2024-02-28T11:13:23;37.80;;;23.67;;
13683;SDS011;6914;53.552;9.908;2024-02-28T11:15:51;37.77;;;24.10;;
13683;SDS011;6914;53.552;9.908;2024-02-28T11:18:20;45.87;;;26.00;;
13683;SDS011;6914;53.552;9.908;2024-02-28T11:20:47;37.87;;;25.50;;
13683;SDS011;6914;53.552;9.908;2024-02-28T11:23:16;40.83;;;25.53;;
13683;SDS011;6914;53.552;9.908;2024-02-28T11:25:46;32.00;;;21.80;;
13683;SDS011;6914;53.552;9.908;2024-02-28T11:28:15;30.57;;;20.70;;
13683;SDS011;6914;53.552;9.908;2024-02-28T11:30:44;38.23;;;23.80;;
13683;SDS011;6914;53.552;9.908;2024-02-28T11:33:11;43.40;;;23.80;;
13683;SDS011;6914;53.552;9.908;2024-02-28T11:35:38;38.73;;;23.07;;
13683;SDS011;6914;53.552;9.908;2024-02-28T11:38:06;45.00;;;25.73;;
13683;SDS011;6914;53.552;9.908;2024-02-28T11:40:36;37.63;;;22.30;;
13683;SDS011;6914;53.552;9.908;2024-02-28T11:43:03;35.13;;;23.57;;
13683;SDS011;6914;53.552;9.908;2024-02-28T11:45:38;34.27;;;22.57;;
13683;SDS011;6914;53.552;9.908;2024-02-28T11:48:07;44.10;;;25.70;;
13683;SDS011;6914;53.552;9.908;2024-02-28T11:50:37;37.17;;;23.80;;
13683;SDS011;6914;53.552;9.908;2024-02-28T11:53:04;46.30;;;26.30;;
13683;SDS011;6914;53.552;9.908;2024-02-28T11:55:31;39.10;;;24.37;;
13683;SDS011;6914;53.552;9.908;2024-02-28T11:57:58;38.40;;;24.53;;
13683;SDS011;6914;53.552;9.908;2024-02-28T12:00:28;43.03;;;26.20;;
13683;SDS011;6914;53.552;9.908;2024-02-28T12:03:03;37.73;;;23.27;;
13683;SDS011;6914;53.552;9.908;2024-02-28T12:05:34;44.53;;;27.00;;
13683;SDS011;6914;53.552;9.908;2024-02-28T12:08:05;43.00;;;25.97;;
13683;SDS011;6914;53.552;9.908;2024-02-28T12:10:35;48.40;;;26.13;;
13683;SDS011;6914;53.552;9.908;2024-02-28T12:13:17;43.90;;;24.30;;
13683;SDS011;6914;53.552;9.908;2024-02-28T12:15:44;42.10;;;24.97;;
13683;SDS011;6914;53.552;9.908;2024-02-28T12:21:06;40.80;;;23.57;;
13683;SDS011;6914;53.552;9.908;2024-02-28T12:26:16;39.13;;;23.60;;
13683;SDS011;6914;53.552;9.908;2024-02-28T12:28:43;31.73;;;21.00;;
13683;SDS011;6914;53.552;9.908;2024-02-28T12:31:10;36.20;;;22.20;;
13683;SDS011;6914;53.552;9.908;2024-02-28T12:33:38;37.90;;;21.90;;
13683;SDS011;6914;53.552;9.908;2024-02-28T12:36:08;33.57;;;22.10;;
13683;SDS011;6914;53.552;9.908;2024-02-28T12:38:37;31.90;;;21.67;;
13683;SDS011;6914;53.552;9.908;2024-02-28T12:41:06;38.57;;;22.97;;
13683;SDS011;6914;53.552;9.908;2024-02-28T12:43:34;33.80;;;21.23;;
13683;SDS011;6914;53.552;9.908;2024-02-28T12:46:02;36.03;;;22.97;;
13683;SDS011;6914;53.552;9.908;2024-02-28T12:48:31;36.80;;;20.90;;
13683;SDS011;6914;53.552;9.908;2024-02-28T12:51:07;34.13;;;21.90;;
13683;SDS011;6914;53.552;9.908;2024-02-28T12:53:36;39.83;;;21.10;;
13683;SDS011;6914;53.552;9.908;2024-02-28T12:56:04;32.47;;;20.23;;
13683;SDS011;6914;53.552;9.908;2024-02-28T12:58:31;31.57;;;20.63;;
13683;SDS011;6914;53.552;9.908;2024-02-28T13:01:12;43.80;;;21.07;;
13683;SDS011;6914;53.552;9.908;2024-02-28T13:03:39;31.17;;;20.67;;
13683;SDS011;6914;53.552;9.908;2024-02-28T13:06:15;31.63;;;19.40;;
13683;SDS011;6914;53.552;9.908;2024-02-28T13:08:44;32.87;;;19.47;;
13683;SDS011;6914;53.552;9.908;2024-02-28T13:11:20;35.40;;;20.83;;
13683;SDS011;6914;53.552;9.908;2024-02-28T13:13:48;39.87;;;20.60;;
13683;SDS011;6914;53.552;9.908;2024-02-28T13:19:02;31.23;;;20.47;;
13683;SDS011;6914;53.552;9.908;2024-02-28T13:21:32;40.03;;;22.50;;
13683;SDS011;6914;53.552;9.908;2024-02-28T13:24:01;32.93;;;22.10;;
13683;SDS011;6914;53.552;9.908;2024-02-28T13:26:29;30.00;;;19.10;;
13683;SDS011;6914;53.552;9.908;2024-02-28T13:28:56;43.73;;;22.73;;
13683;SDS011;6914;53.552;9.908;2024-02-28T13:34:23;34.07;;;20.17;;
13683;SDS011;6914;53.552;9.908;2024-02-28T13:37:07;40.00;;;20.70;;
13683;SDS011;6914;53.552;9.908;2024-02-28T13:39:34;33.00;;;18.90;;
13683;SDS011;6914;53.552;9.908;2024-02-28T13:42:03;30.20;;;20.00;;
13683;SDS011;6914;53.552;9.908;2024-02-28T13:44:34;31.10;;;18.80;;
13683;SDS011;6914;53.552;9.908;2024-02-28T13:47:03;26.60;;;16.37;;
13683;SDS011;6914;53.552;9.908;2024-02-28T13:49:30;29.33;;;17.30;;
13683;SDS011;6914;53.552;9.908;2024-02-28T13:51:57;29.93;;;17.03;;
13683;SDS011;6914;53.552;9.908;2024-02-28T13:54:27;32.00;;;17.83;;
13683;SDS011;6914;53.552;9.908;2024-02-28T13:56:57;30.20;;;18.73;;
13683;SDS011;6914;53.552;9.908;2024-02-28T13:59:24;28.97;;;17.93;;
13683;SDS011;6914;53.552;9.908;2024-02-28T14:01:51;83.07;;;31.10;;
13683;SDS011;6914;53.552;9.908;2024-02-28T14:04:20;46.13;;;23.20;;
13683;SDS011;6914;53.552;9.908;2024-02-28T14:06:47;31.20;;;18.60;;
13683;SDS011;6914;53.552;9.908;2024-02-28T14:09:14;31.87;;;18.37;;
13683;SDS011;6914;53.552;9.908;2024-02-28T14:11:42;30.73;;;18.97;;
13683;SDS011;6914;53.552;9.908;2024-02-28T14:14:10;30.30;;;17.60;;
13683;SDS011;6914;53.552;9.908;2024-02-28T14:16:37;30.50;;;17.30;;
13683;SDS011;6914;53.552;9.908;2024-02-28T14:19:04;27.00;;;17.07;;
13683;SDS011;6914;53.552;9.908;2024-02-28T14:21:32;27.83;;;16.13;;
13683;SDS011;6914;53.552;9.908;2024-02-28T14:23:59;23.83;;;16.13;;
13683;SDS011;6914;53.552;9.908;2024-02-28T14:26:26;26.23;;;15.57;;
13683;SDS011;6914;53.552;9.908;2024-02-28T14:28:56;32.53;;;15.80;;
13683;SDS011;6914;53.552;9.908;2024-02-28T14:31:23;23.23;;;14.70;;
13683;SDS011;6914;53.552;9.908;2024-02-28T14:33:51;20.77;;;15.07;;
13683;SDS011;6914;53.552;9.908;2024-02-28T14:36:20;51.77;;;21.40;;
13683;SDS011;6914;53.552;9.908;2024-02-28T14:38:47;26.20;;;15.80;;
13683;SDS011;6914;53.552;9.908;2024-02-28T14:41:14;25.43;;;17.20;;
13683;SDS011;6914;53.552;9.908;2024-02-28T14:43:41;28.10;;;15.73;;
13683;SDS011;6914;53.552;9.908;2024-02-28T14:46:10;25.27;;;16.27;;
13683;SDS011;6914;53.552;9.908;2024-02-28T14:48:37;32.20;;;17.23;;
13683;SDS011;6914;53.552;9.908;2024-02-28T14:51:05;28.03;;;16.70;;
13683;SDS011;6914;53.552;9.908;2024-02-28T14:53:32;24.17;;;16.00;;